METAR AND TAF INFORMATION
METAR FOR K46U
ADDS - METARS form results

(1648 UTC 15 April 2021)
Data provider http://aviationweather.gov/metar/data/
 
METAR text: K46U 151635Z AUTO 31005KT 10SM FEW060 01/M04 A2998 RMK A01
Conditions at: K46U (ALPINE , WY, US) observed 1635 UTC 15 April 2021
Temperature: 1.0°C (34°F)
Dewpoint: -4.0°C (25°F) [RH = 69%]
Pressure (altimeter): 29.98 inches Hg (1015.3 mb)
Winds: from the NW (310 degrees) at 6 MPH (5 knots; 2.6 m/s)
Visibility: 10 or more miles (16+ km)
Ceiling: at least 12,000 feet AGL
Clouds: few clouds at 6000 feet AGL
Weather: automated observation with no human augmentation;
there may or may not be significant weather present at this time

METAR text: K46U 151615Z AUTO 34004KT 10SM CLR M00/M04 A2998 RMK A01
Conditions at: K46U (ALPINE , WY, US) observed 1615 UTC 15 April 2021
Temperature: 0.0°C (32°F)
Dewpoint: -4.0°C (25°F) [RH = 74%]
Pressure (altimeter): 29.98 inches Hg (1015.3 mb)
Winds: from the NNW (340 degrees) at 5 MPH (4 knots; 2.1 m/s)
Visibility: 10 or more miles (16+ km)
Ceiling: at least 12,000 feet AGL
Clouds: sky clear below 12,000 feet AGL
Weather: automated observation with no human augmentation;
there may or may not be significant weather present at this time

METAR text: K46U 151555Z AUTO 00000KT 9SM CLR M01/M03 A2999 RMK A01
Conditions at: K46U (ALPINE , WY, US) observed 1555 UTC 15 April 2021
Temperature: -1.0°C (30°F)
Dewpoint: -3.0°C (27°F) [RH = 86%]
Pressure (altimeter): 29.99 inches Hg (1015.7 mb)
Winds: calm
Visibility: 9 miles (14 km)
Ceiling: at least 12,000 feet AGL
Clouds: sky clear below 12,000 feet AGL
Weather: automated observation with no human augmentation;
there may or may not be significant weather present at this time

 AIRPORT MAP

 RUNWAY INFORMATION
Runway 13 Runway length 5625 ft Runway width 35 ft
Runway elevation 0 ft Runway displaced threshold 0 ft Runway heading 144
Runway 31 Runway length 5625 ft Runway width 35 ft
Runway elevation 0 ft Runway displaced threshold 300 ft Runway heading 324

 AIRPORT FREQUENCIES
Type CTAF Name CTAF Frequency 122.9 MHZ

 AIRPORT NEAR NAVIGATION AIDS

-